Aviation Digital Data Service (ADDS)

Output produced by METARs form (1327 UTC 23 January 2019)
found at http://www.aviationweather.gov/metar/data/
 
METAR text: EGKK 231320Z 35011KT 310V020 9999 BKN014 02/M01 Q1003
Conditions at: EGKK (LONDON/GATWICK A, GB) observed 1320 UTC 23 January 2019
Temperature: 2.0°C (36°F)
Dewpoint: -1.0°C (30°F) [RH = 80%]
Pressure (altimeter): 29.62 inches Hg (1003.0 mb)
Winds: from the N (350 degrees) at 13 MPH (11 knots; 5.7 m/s)
Visibility: 6 or more miles (10+ km)
Ceiling: 1400 feet AGL
Clouds: broken clouds at 1400 feet AGL
Weather: no significant weather observed at this time

METAR text: EGKK 231250Z 34010KT 9999 BKN016 02/M00 Q1002
Conditions at: EGKK (LONDON/GATWICK A, GB) observed 1250 UTC 23 January 2019
Temperature: 2.0°C (36°F)
Dewpoint: 0.0°C (32°F) [RH = 87%]
Pressure (altimeter): 29.59 inches Hg (1002.0 mb)
Winds: from the NNW (340 degrees) at 12 MPH (10 knots; 5.1 m/s)
Visibility: 6 or more miles (10+ km)
Ceiling: 1600 feet AGL
Clouds: broken clouds at 1600 feet AGL
Weather: no significant weather observed at this time

METAR text: EGKK 231220Z 34011KT 9999 BKN015 02/M00 Q1002
Conditions at: EGKK (LONDON/GATWICK A, GB) observed 1220 UTC 23 January 2019
Temperature: 2.0°C (36°F)
Dewpoint: 0.0°C (32°F) [RH = 87%]
Pressure (altimeter): 29.59 inches Hg (1002.0 mb)
Winds: from the NNW (340 degrees) at 13 MPH (11 knots; 5.7 m/s)
Visibility: 6 or more miles (10+ km)
Ceiling: 1500 feet AGL
Clouds: broken clouds at 1500 feet AGL
Weather: no significant weather observed at this time

METAR text: EGKK 231150Z 34011KT 300V010 9999 BKN014 03/M00 Q1002
Conditions at: EGKK (LONDON/GATWICK A, GB) observed 1150 UTC 23 January 2019
Temperature: 3.0°C (37°F)
Dewpoint: 0.0°C (32°F) [RH = 81%]
Pressure (altimeter): 29.59 inches Hg (1002.0 mb)
Winds: from the NNW (340 degrees) at 13 MPH (11 knots; 5.7 m/s)
Visibility: 6 or more miles (10+ km)
Ceiling: 1400 feet AGL
Clouds: broken clouds at 1400 feet AGL
Weather: no significant weather observed at this time

METAR text: EGKK 231120Z 33012KT 300V010 9999 BKN016 02/M01 Q1002
Conditions at: EGKK (LONDON/GATWICK A, GB) observed 1120 UTC 23 January 2019
Temperature: 2.0°C (36°F)
Dewpoint: -1.0°C (30°F) [RH = 80%]
Pressure (altimeter): 29.59 inches Hg (1002.0 mb)
Winds: from the NNW (330 degrees) at 14 MPH (12 knots; 6.2 m/s)
Visibility: 6 or more miles (10+ km)
Ceiling: 1600 feet AGL
Clouds: broken clouds at 1600 feet AGL
Weather: no significant weather observed at this time

METAR text: EGKK 231050Z 33011KT 290V350 9999 BKN018 02/M01 Q1002
Conditions at: EGKK (LONDON/GATWICK A, GB) observed 1050 UTC 23 January 2019
Temperature: 2.0°C (36°F)
Dewpoint: -1.0°C (30°F) [RH = 80%]
Pressure (altimeter): 29.59 inches Hg (1002.0 mb)
Winds: from the NNW (330 degrees) at 13 MPH (11 knots; 5.7 m/s)
Visibility: 6 or more miles (10+ km)
Ceiling: 1800 feet AGL
Clouds: broken clouds at 1800 feet AGL
Weather: no significant weather observed at this time

METAR text: EGKK 231020Z 34011KT 300V360 9999 BKN014 02/M01 Q1001
Conditions at: EGKK (LONDON/GATWICK A, GB) observed 1020 UTC 23 January 2019
Temperature: 2.0°C (36°F)
Dewpoint: -1.0°C (30°F) [RH = 80%]
Pressure (altimeter): 29.56 inches Hg (1001.0 mb)
Winds: from the NNW (340 degrees) at 13 MPH (11 knots; 5.7 m/s)
Visibility: 6 or more miles (10+ km)
Ceiling: 1400 feet AGL
Clouds: broken clouds at 1400 feet AGL
Weather: no significant weather observed at this time

METAR text: EGKK 230950Z 33011KT 9999 BKN013 02/M01 Q1001
Conditions at: EGKK (LONDON/GATWICK A, GB) observed 0950 UTC 23 January 2019
Temperature: 2.0°C (36°F)
Dewpoint: -1.0°C (30°F) [RH = 80%]
Pressure (altimeter): 29.56 inches Hg (1001.0 mb)
Winds: from the NNW (330 degrees) at 13 MPH (11 knots; 5.7 m/s)
Visibility: 6 or more miles (10+ km)
Ceiling: 1300 feet AGL
Clouds: broken clouds at 1300 feet AGL
Weather: no significant weather observed at this time

METAR text: EGKK 230920Z 35011KT 9999 SCT014 BKN018 02/M01 Q1000
Conditions at: EGKK (LONDON/GATWICK A, GB) observed 0920 UTC 23 January 2019
Temperature: 2.0°C (36°F)
Dewpoint: -1.0°C (30°F) [RH = 80%]
Pressure (altimeter): 29.53 inches Hg (1000.0 mb)
Winds: from the N (350 degrees) at 13 MPH (11 knots; 5.7 m/s)
Visibility: 6 or more miles (10+ km)
Ceiling: 1800 feet AGL
Clouds: scattered clouds at 1400 feet AGL
broken clouds at 1800 feet AGL
Weather: no significant weather observed at this time

METAR text: EGKK 230850Z 34009KT 9999 SCT017 BKN021 01/M00 Q1000
Conditions at: EGKK (LONDON/GATWICK A, GB) observed 0850 UTC 23 January 2019
Temperature: 1.0°C (34°F)
Dewpoint: 0.0°C (32°F) [RH = 93%]
Pressure (altimeter): 29.53 inches Hg (1000.0 mb)
Winds: from the NNW (340 degrees) at 10 MPH (9 knots; 4.6 m/s)
Visibility: 6 or more miles (10+ km)
Ceiling: 2100 feet AGL
Clouds: scattered clouds at 1700 feet AGL
broken clouds at 2100 feet AGL
Weather: no significant weather observed at this time

METAR text: EGKK 230820Z 33010KT 9999 BKN015 01/M01 Q0999
Conditions at: EGKK (LONDON/GATWICK A, GB) observed 0820 UTC 23 January 2019
Temperature: 1.0°C (34°F)
Dewpoint: -1.0°C (30°F) [RH = 86%]
Pressure (altimeter): 29.50 inches Hg (999.0 mb)
Winds: from the NNW (330 degrees) at 12 MPH (10 knots; 5.1 m/s)
Visibility: 6 or more miles (10+ km)
Ceiling: 1500 feet AGL
Clouds: broken clouds at 1500 feet AGL
Weather: no significant weather observed at this time

METAR text: EGKK 230750Z 33011KT 9999 BKN011 01/M00 Q0999
Conditions at: EGKK (LONDON/GATWICK A, GB) observed 0750 UTC 23 January 2019
Temperature: 1.0°C (34°F)
Dewpoint: 0.0°C (32°F) [RH = 93%]
Pressure (altimeter): 29.50 inches Hg (999.0 mb)
Winds: from the NNW (330 degrees) at 13 MPH (11 knots; 5.7 m/s)
Visibility: 6 or more miles (10+ km)
Ceiling: 1100 feet AGL
Clouds: broken clouds at 1100 feet AGL
Weather: no significant weather observed at this time

METAR text: EGKK 230720Z 33010KT 280V020 9999 BKN010 BKN020 01/M00 Q0999
Conditions at: EGKK (LONDON/GATWICK A, GB) observed 0720 UTC 23 January 2019
Temperature: 1.0°C (34°F)
Dewpoint: 0.0°C (32°F) [RH = 93%]
Pressure (altimeter): 29.50 inches Hg (999.0 mb)
Winds: from the NNW (330 degrees) at 12 MPH (10 knots; 5.1 m/s)
Visibility: 6 or more miles (10+ km)
Ceiling: 1000 feet AGL
Clouds: broken clouds at 1000 feet AGL
broken clouds at 2000 feet AGL
Weather: no significant weather observed at this time

METAR text: EGKK 230650Z 35009KT 9999 BKN010 01/M00 Q0998
Conditions at: EGKK (LONDON/GATWICK A, GB) observed 0650 UTC 23 January 2019
Temperature: 1.0°C (34°F)
Dewpoint: 0.0°C (32°F) [RH = 93%]
Pressure (altimeter): 29.47 inches Hg (998.0 mb)
Winds: from the N (350 degrees) at 10 MPH (9 knots; 4.6 m/s)
Visibility: 6 or more miles (10+ km)
Ceiling: 1000 feet AGL
Clouds: broken clouds at 1000 feet AGL
Weather: no significant weather observed at this time

METAR text: EGKK 230620Z 35007KT 310V020 9999 BKN011 01/M00 Q0998
Conditions at: EGKK (LONDON/GATWICK A, GB) observed 0620 UTC 23 January 2019
Temperature: 1.0°C (34°F)
Dewpoint: 0.0°C (32°F) [RH = 93%]
Pressure (altimeter): 29.47 inches Hg (998.0 mb)
Winds: from the N (350 degrees) at 8 MPH (7 knots; 3.6 m/s)
Visibility: 6 or more miles (10+ km)
Ceiling: 1100 feet AGL
Clouds: broken clouds at 1100 feet AGL
Weather: no significant weather observed at this time

METAR text: EGKK 230550Z 34008KT 9999 BKN010 01/M00 Q0998
Conditions at: EGKK (LONDON/GATWICK A, GB) observed 0550 UTC 23 January 2019
Temperature: 1.0°C (34°F)
Dewpoint: 0.0°C (32°F) [RH = 93%]
Pressure (altimeter): 29.47 inches Hg (998.0 mb)
Winds: from the NNW (340 degrees) at 9 MPH (8 knots; 4.1 m/s)
Visibility: 6 or more miles (10+ km)
Ceiling: 1000 feet AGL
Clouds: broken clouds at 1000 feet AGL
Weather: no significant weather observed at this time

METAR text: EGKK 230520Z 34009KT 310V010 9999 BKN009 01/M00 Q0997
Conditions at: EGKK (LONDON/GATWICK A, GB) observed 0520 UTC 23 January 2019
Temperature: 1.0°C (34°F)
Dewpoint: 0.0°C (32°F) [RH = 93%]
Pressure (altimeter): 29.44 inches Hg (997.0 mb)
Winds: from the NNW (340 degrees) at 10 MPH (9 knots; 4.6 m/s)
Visibility: 6 or more miles (10+ km)
Ceiling: 900 feet AGL
Clouds: broken clouds at 900 feet AGL
Weather: no significant weather observed at this time

METAR text: EGKK 230450Z 33007KT 9999 BKN011 01/M00 Q0997
Conditions at: EGKK (LONDON/GATWICK A, GB) observed 0450 UTC 23 January 2019
Temperature: 1.0°C (34°F)
Dewpoint: 0.0°C (32°F) [RH = 93%]
Pressure (altimeter): 29.44 inches Hg (997.0 mb)
Winds: from the NNW (330 degrees) at 8 MPH (7 knots; 3.6 m/s)
Visibility: 6 or more miles (10+ km)
Ceiling: 1100 feet AGL
Clouds: broken clouds at 1100 feet AGL
Weather: no significant weather observed at this time

METAR text: EGKK 230420Z 33007KT 9999 BKN010 01/M00 Q0997
Conditions at: EGKK (LONDON/GATWICK A, GB) observed 0420 UTC 23 January 2019
Temperature: 1.0°C (34°F)
Dewpoint: 0.0°C (32°F) [RH = 93%]
Pressure (altimeter): 29.44 inches Hg (997.0 mb)
Winds: from the NNW (330 degrees) at 8 MPH (7 knots; 3.6 m/s)
Visibility: 6 or more miles (10+ km)
Ceiling: 1000 feet AGL
Clouds: broken clouds at 1000 feet AGL
Weather: no significant weather observed at this time

METAR text: EGKK 230350Z 34008KT 9999 BKN011 01/M00 Q0996
Conditions at: EGKK (LONDON/GATWICK A, GB) observed 0350 UTC 23 January 2019
Temperature: 1.0°C (34°F)
Dewpoint: 0.0°C (32°F) [RH = 93%]
Pressure (altimeter): 29.41 inches Hg (996.0 mb)
Winds: from the NNW (340 degrees) at 9 MPH (8 knots; 4.1 m/s)
Visibility: 6 or more miles (10+ km)
Ceiling: 1100 feet AGL
Clouds: broken clouds at 1100 feet AGL
Weather: no significant weather observed at this time

METAR text: EGKK 230320Z 34009KT 9999 BKN011 01/M00 Q0997
Conditions at: EGKK (LONDON/GATWICK A, GB) observed 0320 UTC 23 January 2019
Temperature: 1.0°C (34°F)
Dewpoint: 0.0°C (32°F) [RH = 93%]
Pressure (altimeter): 29.44 inches Hg (997.0 mb)
Winds: from the NNW (340 degrees) at 10 MPH (9 knots; 4.6 m/s)
Visibility: 6 or more miles (10+ km)
Ceiling: 1100 feet AGL
Clouds: broken clouds at 1100 feet AGL
Weather: no significant weather observed at this time

METAR text: EGKK 230250Z 33007KT 9000 BKN010 01/M00 Q0997
Conditions at: EGKK (LONDON/GATWICK A, GB) observed 0250 UTC 23 January 2019
Temperature: 1.0°C (34°F)
Dewpoint: 0.0°C (32°F) [RH = 93%]
Pressure (altimeter): 29.44 inches Hg (997.0 mb)
Winds: from the NNW (330 degrees) at 8 MPH (7 knots; 3.6 m/s)
Visibility: 6 miles ( 9 km)
Ceiling: 1000 feet AGL
Clouds: broken clouds at 1000 feet AGL
Weather: no significant weather observed at this time

METAR text: EGKK 230220Z 33007KT 9000 BKN011 01/M00 Q0997
Conditions at: EGKK (LONDON/GATWICK A, GB) observed 0220 UTC 23 January 2019
Temperature: 1.0°C (34°F)
Dewpoint: 0.0°C (32°F) [RH = 93%]
Pressure (altimeter): 29.44 inches Hg (997.0 mb)
Winds: from the NNW (330 degrees) at 8 MPH (7 knots; 3.6 m/s)
Visibility: 6 miles ( 9 km)
Ceiling: 1100 feet AGL
Clouds: broken clouds at 1100 feet AGL
Weather: no significant weather observed at this time

METAR text: EGKK 230150Z 33008KT 6000 SCT006 SCT008 01/00 Q0997
Conditions at: EGKK (LONDON/GATWICK A, GB) observed 0150 UTC 23 January 2019
Temperature: 1.0°C (34°F)
Dewpoint: 0.0°C (32°F) [RH = 93%]
Pressure (altimeter): 29.44 inches Hg (997.0 mb)
Winds: from the NNW (330 degrees) at 9 MPH (8 knots; 4.1 m/s)
Visibility: 4 miles ( 6 km)
Ceiling: at least 12,000 feet AGL
Clouds: scattered clouds at 600 feet AGL
scattered clouds at 800 feet AGL
Weather: no significant weather observed at this time

METAR text: EGKK 230120Z 33007KT 5000 BR BKN005 01/00 Q0997
Conditions at: EGKK (LONDON/GATWICK A, GB) observed 0120 UTC 23 January 2019
Temperature: 1.0°C (34°F)
Dewpoint: 0.0°C (32°F) [RH = 93%]
Pressure (altimeter): 29.44 inches Hg (997.0 mb)
Winds: from the NNW (330 degrees) at 8 MPH (7 knots; 3.6 m/s)
Visibility: 3 miles ( 5 km)
Ceiling: 500 feet AGL
Clouds: broken clouds at 500 feet AGL
Weather: BR  (mist)

METAR text: EGKK 230050Z 33009KT 4500 BR BKN004 01/00 Q0997
Conditions at: EGKK (LONDON/GATWICK A, GB) observed 0050 UTC 23 January 2019
Temperature: 1.0°C (34°F)
Dewpoint: 0.0°C (32°F) [RH = 93%]
Pressure (altimeter): 29.44 inches Hg (997.0 mb)
Winds: from the NNW (330 degrees) at 10 MPH (9 knots; 4.6 m/s)
Visibility: 2.80 miles (4.51 km)
Ceiling: 400 feet AGL
Clouds: broken clouds at 400 feet AGL
Weather: BR  (mist)

METAR text: EGKK 230020Z 32008KT 4500 BR BKN004 01/01 Q0997
Conditions at: EGKK (LONDON/GATWICK A, GB) observed 0020 UTC 23 January 2019
Temperature: 1.0°C (34°F)
Dewpoint: 1.0°C (34°F) [RH = 100%]
Pressure (altimeter): 29.44 inches Hg (997.0 mb)
Winds: from the NW (320 degrees) at 9 MPH (8 knots; 4.1 m/s)
Visibility: 2.80 miles (4.51 km)
Ceiling: 400 feet AGL
Clouds: broken clouds at 400 feet AGL
Weather: BR  (mist)

METAR text: EGKK 222350Z 33007KT 7000 BKN005 01/01 Q0997
Conditions at: EGKK (LONDON/GATWICK A, GB) observed 2350 UTC 22 January 2019
Temperature: 1.0°C (34°F)
Dewpoint: 1.0°C (34°F) [RH = 100%]
Pressure (altimeter): 29.44 inches Hg (997.0 mb)
Winds: from the NNW (330 degrees) at 8 MPH (7 knots; 3.6 m/s)
Visibility: 4 miles ( 7 km)
Ceiling: 500 feet AGL
Clouds: broken clouds at 500 feet AGL
Weather: no significant weather observed at this time

METAR text: EGKK 222320Z 28004KT 240V320 8000 BKN009 01/00 Q0997
Conditions at: EGKK (LONDON/GATWICK A, GB) observed 2320 UTC 22 January 2019
Temperature: 1.0°C (34°F)
Dewpoint: 0.0°C (32°F) [RH = 93%]
Pressure (altimeter): 29.44 inches Hg (997.0 mb)
Winds: from the W (280 degrees) at 5 MPH (4 knots; 2.1 m/s)
Visibility: 5 miles ( 8 km)
Ceiling: 900 feet AGL
Clouds: broken clouds at 900 feet AGL
Weather: no significant weather observed at this time

METAR text: EGKK 222250Z 31006KT 8000 SCT006 BKN010 01/01 Q0997
Conditions at: EGKK (LONDON/GATWICK A, GB) observed 2250 UTC 22 January 2019
Temperature: 1.0°C (34°F)
Dewpoint: 1.0°C (34°F) [RH = 100%]
Pressure (altimeter): 29.44 inches Hg (997.0 mb)
Winds: from the NW (310 degrees) at 7 MPH (6 knots; 3.1 m/s)
Visibility: 5 miles ( 8 km)
Ceiling: 1000 feet AGL
Clouds: scattered clouds at 600 feet AGL
broken clouds at 1000 feet AGL
Weather: no significant weather observed at this time

METAR text: EGKK 222220Z 32005KT 9000 SCT006 SCT015 01/01 Q0997
Conditions at: EGKK (LONDON/GATWICK A, GB) observed 2220 UTC 22 January 2019
Temperature: 1.0°C (34°F)
Dewpoint: 1.0°C (34°F) [RH = 100%]
Pressure (altimeter): 29.44 inches Hg (997.0 mb)
Winds: from the NW (320 degrees) at 6 MPH (5 knots; 2.6 m/s)
Visibility: 6 miles ( 9 km)
Ceiling: at least 12,000 feet AGL
Clouds: scattered clouds at 600 feet AGL
scattered clouds at 1500 feet AGL
Weather: no significant weather observed at this time

METAR text: EGKK 222150Z 31005KT 260V350 9000 BKN009 01/01 Q0997
Conditions at: EGKK (LONDON/GATWICK A, GB) observed 2150 UTC 22 January 2019
Temperature: 1.0°C (34°F)
Dewpoint: 1.0°C (34°F) [RH = 100%]
Pressure (altimeter): 29.44 inches Hg (997.0 mb)
Winds: from the NW (310 degrees) at 6 MPH (5 knots; 2.6 m/s)
Visibility: 6 miles ( 9 km)
Ceiling: 900 feet AGL
Clouds: broken clouds at 900 feet AGL
Weather: no significant weather observed at this time

METAR text: EGKK 222120Z 29005KT 9999 BKN010 01/01 Q0997
Conditions at: EGKK (LONDON/GATWICK A, GB) observed 2120 UTC 22 January 2019
Temperature: 1.0°C (34°F)
Dewpoint: 1.0°C (34°F) [RH = 100%]
Pressure (altimeter): 29.44 inches Hg (997.0 mb)
Winds: from the WNW (290 degrees) at 6 MPH (5 knots; 2.6 m/s)
Visibility: 6 or more miles (10+ km)
Ceiling: 1000 feet AGL
Clouds: broken clouds at 1000 feet AGL
Weather: no significant weather observed at this time

METAR text: EGKK 222050Z 27005KT 8000 FEW004 BKN009 01/01 Q0997
Conditions at: EGKK (LONDON/GATWICK A, GB) observed 2050 UTC 22 January 2019
Temperature: 1.0°C (34°F)
Dewpoint: 1.0°C (34°F) [RH = 100%]
Pressure (altimeter): 29.44 inches Hg (997.0 mb)
Winds: from the W (270 degrees) at 6 MPH (5 knots; 2.6 m/s)
Visibility: 5 miles ( 8 km)
Ceiling: 900 feet AGL
Clouds: few clouds at 400 feet AGL
broken clouds at 900 feet AGL
Weather: no significant weather observed at this time

METAR text: EGKK 222020Z 30005KT 8000 FEW004 BKN010 01/01 Q0997
Conditions at: EGKK (LONDON/GATWICK A, GB) observed 2020 UTC 22 January 2019
Temperature: 1.0°C (34°F)
Dewpoint: 1.0°C (34°F) [RH = 100%]
Pressure (altimeter): 29.44 inches Hg (997.0 mb)
Winds: from the WNW (300 degrees) at 6 MPH (5 knots; 2.6 m/s)
Visibility: 5 miles ( 8 km)
Ceiling: 1000 feet AGL
Clouds: few clouds at 400 feet AGL
broken clouds at 1000 feet AGL
Weather: no significant weather observed at this time

METAR text: EGKK 221950Z 26004KT 9000 BKN016 01/01 Q0997
Conditions at: EGKK (LONDON/GATWICK A, GB) observed 1950 UTC 22 January 2019
Temperature: 1.0°C (34°F)
Dewpoint: 1.0°C (34°F) [RH = 100%]
Pressure (altimeter): 29.44 inches Hg (997.0 mb)
Winds: from the W (260 degrees) at 5 MPH (4 knots; 2.1 m/s)
Visibility: 6 miles ( 9 km)
Ceiling: 1600 feet AGL
Clouds: broken clouds at 1600 feet AGL
Weather: no significant weather observed at this time

METAR text: EGKK 221920Z 22003KT 9999 -RA FEW004 BKN020 01/01 Q0997
Conditions at: EGKK (LONDON/GATWICK A, GB) observed 1920 UTC 22 January 2019
Temperature: 1.0°C (34°F)
Dewpoint: 1.0°C (34°F) [RH = 100%]
Pressure (altimeter): 29.44 inches Hg (997.0 mb)
Winds: from the SW (220 degrees) at 3 MPH (3 knots; 1.5 m/s)
Visibility: 6 or more miles (10+ km)
Ceiling: 2000 feet AGL
Clouds: few clouds at 400 feet AGL
broken clouds at 2000 feet AGL
Weather: -RA  (light rain)

METAR text: EGKK 221850Z 24003KT 9000 -SN FEW004 BKN010 02/01 Q0998
Conditions at: EGKK (LONDON/GATWICK A, GB) observed 1850 UTC 22 January 2019
Temperature: 2.0°C (36°F)
Dewpoint: 1.0°C (34°F) [RH = 93%]
Pressure (altimeter): 29.47 inches Hg (998.0 mb)
Winds: from the WSW (240 degrees) at 3 MPH (3 knots; 1.5 m/s)
Visibility: 6 miles ( 9 km)
Ceiling: 1000 feet AGL
Clouds: few clouds at 400 feet AGL
broken clouds at 1000 feet AGL
Weather: -SN  (light snow)

METAR text: EGKK 221820Z VRB03KT 6000 -SN FEW008 BKN010 02/01 Q0998
Conditions at: EGKK (LONDON/GATWICK A, GB) observed 1820 UTC 22 January 2019
Temperature: 2.0°C (36°F)
Dewpoint: 1.0°C (34°F) [RH = 93%]
Pressure (altimeter): 29.47 inches Hg (998.0 mb)
Winds: variable direction winds at 3 MPH (3 knots; 1.5 m/s)
Visibility: 4 miles ( 6 km)
Ceiling: 1000 feet AGL
Clouds: few clouds at 800 feet AGL
broken clouds at 1000 feet AGL
Weather: -SN  (light snow)

METAR text: EGKK 221750Z 22004KT 180V240 9000 -RA FEW011 BKN020 02/01 Q0998
Conditions at: EGKK (LONDON/GATWICK A, GB) observed 1750 UTC 22 January 2019
Temperature: 2.0°C (36°F)
Dewpoint: 1.0°C (34°F) [RH = 93%]
Pressure (altimeter): 29.47 inches Hg (998.0 mb)
Winds: from the SW (220 degrees) at 5 MPH (4 knots; 2.1 m/s)
Visibility: 6 miles ( 9 km)
Ceiling: 2000 feet AGL
Clouds: few clouds at 1100 feet AGL
broken clouds at 2000 feet AGL
Weather: -RA  (light rain)

METAR text: EGKK 221720Z 22004KT 180V250 9999 -RA SCT014 BKN025 03/01 Q0998
Conditions at: EGKK (LONDON/GATWICK A, GB) observed 1720 UTC 22 January 2019
Temperature: 3.0°C (37°F)
Dewpoint: 1.0°C (34°F) [RH = 87%]
Pressure (altimeter): 29.47 inches Hg (998.0 mb)
Winds: from the SW (220 degrees) at 5 MPH (4 knots; 2.1 m/s)
Visibility: 6 or more miles (10+ km)
Ceiling: 2500 feet AGL
Clouds: scattered clouds at 1400 feet AGL
broken clouds at 2500 feet AGL
Weather: -RA  (light rain)

METAR text: EGKK 221650Z 23005KT 9999 -RA FEW021 BKN028 03/01 Q0999
Conditions at: EGKK (LONDON/GATWICK A, GB) observed 1650 UTC 22 January 2019
Temperature: 3.0°C (37°F)
Dewpoint: 1.0°C (34°F) [RH = 87%]
Pressure (altimeter): 29.50 inches Hg (999.0 mb)
Winds: from the SW (230 degrees) at 6 MPH (5 knots; 2.6 m/s)
Visibility: 6 or more miles (10+ km)
Ceiling: 2800 feet AGL
Clouds: few clouds at 2100 feet AGL
broken clouds at 2800 feet AGL
Weather: -RA  (light rain)

METAR text: EGKK 221620Z 26004KT 230V300 9999 -RA FEW022 BKN029 04/M01 Q0999
Conditions at: EGKK (LONDON/GATWICK A, GB) observed 1620 UTC 22 January 2019
Temperature: 4.0°C (39°F)
Dewpoint: -1.0°C (30°F) [RH = 70%]
Pressure (altimeter): 29.50 inches Hg (999.0 mb)
Winds: from the W (260 degrees) at 5 MPH (4 knots; 2.1 m/s)
Visibility: 6 or more miles (10+ km)
Ceiling: 2900 feet AGL
Clouds: few clouds at 2200 feet AGL
broken clouds at 2900 feet AGL
Weather: -RA  (light rain)

METAR text: EGKK 221550Z 24005KT 9999 FEW044 05/01 Q0999
Conditions at: EGKK (LONDON/GATWICK A, GB) observed 1550 UTC 22 January 2019
Temperature: 5.0°C (41°F)
Dewpoint: 1.0°C (34°F) [RH = 75%]
Pressure (altimeter): 29.50 inches Hg (999.0 mb)
Winds: from the WSW (240 degrees) at 6 MPH (5 knots; 2.6 m/s)
Visibility: 6 or more miles (10+ km)
Ceiling: at least 12,000 feet AGL
Clouds: few clouds at 4400 feet AGL
Weather: no significant weather observed at this time

METAR text: EGKK 221520Z 21005KT 9999 FEW018 05/01 Q0999
Conditions at: EGKK (LONDON/GATWICK A, GB) observed 1520 UTC 22 January 2019
Temperature: 5.0°C (41°F)
Dewpoint: 1.0°C (34°F) [RH = 75%]
Pressure (altimeter): 29.50 inches Hg (999.0 mb)
Winds: from the SSW (210 degrees) at 6 MPH (5 knots; 2.6 m/s)
Visibility: 6 or more miles (10+ km)
Ceiling: at least 12,000 feet AGL
Clouds: few clouds at 1800 feet AGL
Weather: no significant weather observed at this time

METAR text: EGKK 221450Z 23005KT 9999 FEW023 05/01 Q1000
Conditions at: EGKK (LONDON/GATWICK A, GB) observed 1450 UTC 22 January 2019
Temperature: 5.0°C (41°F)
Dewpoint: 1.0°C (34°F) [RH = 75%]
Pressure (altimeter): 29.53 inches Hg (1000.0 mb)
Winds: from the SW (230 degrees) at 6 MPH (5 knots; 2.6 m/s)
Visibility: 6 or more miles (10+ km)
Ceiling: at least 12,000 feet AGL
Clouds: few clouds at 2300 feet AGL
Weather: no significant weather observed at this time

METAR text: EGKK 221420Z 24004KT 9999 FEW022 05/01 Q1000
Conditions at: EGKK (LONDON/GATWICK A, GB) observed 1420 UTC 22 January 2019
Temperature: 5.0°C (41°F)
Dewpoint: 1.0°C (34°F) [RH = 75%]
Pressure (altimeter): 29.53 inches Hg (1000.0 mb)
Winds: from the WSW (240 degrees) at 5 MPH (4 knots; 2.1 m/s)
Visibility: 6 or more miles (10+ km)
Ceiling: at least 12,000 feet AGL
Clouds: few clouds at 2200 feet AGL
Weather: no significant weather observed at this time

METAR text: EGKK 221350Z 23005KT CAVOK 05/01 Q1001
Conditions at: EGKK (LONDON/GATWICK A, GB) observed 1350 UTC 22 January 2019
Temperature: 5.0°C (41°F)
Dewpoint: 1.0°C (34°F) [RH = 75%]
Pressure (altimeter): 29.56 inches Hg (1001.0 mb)
Winds: from the SW (230 degrees) at 6 MPH (5 knots; 2.6 m/s)
Visibility: 6 or more miles (10+ km)
Ceiling: ceiling and visibility are OK
Clouds: unknown
Weather: no significant weather observed at this time

METAR text: EGKK 221320Z 26006KT 9999 FEW023 06/01 Q1001
Conditions at: EGKK (LONDON/GATWICK A, GB) observed 1320 UTC 22 January 2019
Temperature: 6.0°C (43°F)
Dewpoint: 1.0°C (34°F) [RH = 70%]
Pressure (altimeter): 29.56 inches Hg (1001.0 mb)
Winds: from the W (260 degrees) at 7 MPH (6 knots; 3.1 m/s)
Visibility: 6 or more miles (10+ km)
Ceiling: at least 12,000 feet AGL
Clouds: few clouds at 2300 feet AGL
Weather: no significant weather observed at this time

METAR text: EGKK 221250Z 25005KT 230V290 CAVOK 06/01 Q1002
Conditions at: EGKK (LONDON/GATWICK A, GB) observed 1250 UTC 22 January 2019
Temperature: 6.0°C (43°F)
Dewpoint: 1.0°C (34°F) [RH = 70%]
Pressure (altimeter): 29.59 inches Hg (1002.0 mb)
Winds: from the WSW (250 degrees) at 6 MPH (5 knots; 2.6 m/s)
Visibility: 6 or more miles (10+ km)
Ceiling: ceiling and visibility are OK
Clouds: unknown
Weather: no significant weather observed at this time

METAR text: EGKK 221220Z 26006KT CAVOK 05/02 Q1002
Conditions at: EGKK (LONDON/GATWICK A, GB) observed 1220 UTC 22 January 2019
Temperature: 5.0°C (41°F)
Dewpoint: 2.0°C (36°F) [RH = 81%]
Pressure (altimeter): 29.59 inches Hg (1002.0 mb)
Winds: from the W (260 degrees) at 7 MPH (6 knots; 3.1 m/s)
Visibility: 6 or more miles (10+ km)
Ceiling: ceiling and visibility are OK
Clouds: unknown
Weather: no significant weather observed at this time

METAR text: EGKK 221150Z 26006KT CAVOK 05/02 Q1003
Conditions at: EGKK (LONDON/GATWICK A, GB) observed 1150 UTC 22 January 2019
Temperature: 5.0°C (41°F)
Dewpoint: 2.0°C (36°F) [RH = 81%]
Pressure (altimeter): 29.62 inches Hg (1003.0 mb)
Winds: from the W (260 degrees) at 7 MPH (6 knots; 3.1 m/s)
Visibility: 6 or more miles (10+ km)
Ceiling: ceiling and visibility are OK
Clouds: unknown
Weather: no significant weather observed at this time

METAR text: EGKK 221120Z 24006KT 9999 FEW013 04/02 Q1003
Conditions at: EGKK (LONDON/GATWICK A, GB) observed 1120 UTC 22 January 2019
Temperature: 4.0°C (39°F)
Dewpoint: 2.0°C (36°F) [RH = 87%]
Pressure (altimeter): 29.62 inches Hg (1003.0 mb)
Winds: from the WSW (240 degrees) at 7 MPH (6 knots; 3.1 m/s)
Visibility: 6 or more miles (10+ km)
Ceiling: at least 12,000 feet AGL
Clouds: few clouds at 1300 feet AGL
Weather: no significant weather observed at this time

METAR text: EGKK 221050Z 25006KT CAVOK 04/02 Q1003
Conditions at: EGKK (LONDON/GATWICK A, GB) observed 1050 UTC 22 January 2019
Temperature: 4.0°C (39°F)
Dewpoint: 2.0°C (36°F) [RH = 87%]
Pressure (altimeter): 29.62 inches Hg (1003.0 mb)
Winds: from the WSW (250 degrees) at 7 MPH (6 knots; 3.1 m/s)
Visibility: 6 or more miles (10+ km)
Ceiling: ceiling and visibility are OK
Clouds: unknown
Weather: no significant weather observed at this time

METAR text: EGKK 221020Z 25006KT 220V280 CAVOK 03/01 Q1004
Conditions at: EGKK (LONDON/GATWICK A, GB) observed 1020 UTC 22 January 2019
Temperature: 3.0°C (37°F)
Dewpoint: 1.0°C (34°F) [RH = 87%]
Pressure (altimeter): 29.65 inches Hg (1004.0 mb)
Winds: from the WSW (250 degrees) at 7 MPH (6 knots; 3.1 m/s)
Visibility: 6 or more miles (10+ km)
Ceiling: ceiling and visibility are OK
Clouds: unknown
Weather: no significant weather observed at this time

METAR text: EGKK 220950Z VRB03KT CAVOK 03/01 Q1004
Conditions at: EGKK (LONDON/GATWICK A, GB) observed 0950 UTC 22 January 2019
Temperature: 3.0°C (37°F)
Dewpoint: 1.0°C (34°F) [RH = 87%]
Pressure (altimeter): 29.65 inches Hg (1004.0 mb)
Winds: variable direction winds at 3 MPH (3 knots; 1.5 m/s)
Visibility: 6 or more miles (10+ km)
Ceiling: ceiling and visibility are OK
Clouds: unknown
Weather: no significant weather observed at this time

METAR text: EGKK 220920Z 22004KT CAVOK 02/01 Q1004
Conditions at: EGKK (LONDON/GATWICK A, GB) observed 0920 UTC 22 January 2019
Temperature: 2.0°C (36°F)
Dewpoint: 1.0°C (34°F) [RH = 93%]
Pressure (altimeter): 29.65 inches Hg (1004.0 mb)
Winds: from the SW (220 degrees) at 5 MPH (4 knots; 2.1 m/s)
Visibility: 6 or more miles (10+ km)
Ceiling: ceiling and visibility are OK
Clouds: unknown
Weather: no significant weather observed at this time

METAR text: EGKK 220850Z 23005KT CAVOK 01/01 Q1004
Conditions at: EGKK (LONDON/GATWICK A, GB) observed 0850 UTC 22 January 2019
Temperature: 1.0°C (34°F)
Dewpoint: 1.0°C (34°F) [RH = 100%]
Pressure (altimeter): 29.65 inches Hg (1004.0 mb)
Winds: from the SW (230 degrees) at 6 MPH (5 knots; 2.6 m/s)
Visibility: 6 or more miles (10+ km)
Ceiling: ceiling and visibility are OK
Clouds: unknown
Weather: no significant weather observed at this time

METAR text: EGKK 220820Z 22004KT CAVOK 01/00 Q1004
Conditions at: EGKK (LONDON/GATWICK A, GB) observed 0820 UTC 22 January 2019
Temperature: 1.0°C (34°F)
Dewpoint: 0.0°C (32°F) [RH = 93%]
Pressure (altimeter): 29.65 inches Hg (1004.0 mb)
Winds: from the SW (220 degrees) at 5 MPH (4 knots; 2.1 m/s)
Visibility: 6 or more miles (10+ km)
Ceiling: ceiling and visibility are OK
Clouds: unknown
Weather: no significant weather observed at this time

METAR text: EGKK 220750Z VRB01KT CAVOK 01/00 Q1004
Conditions at: EGKK (LONDON/GATWICK A, GB) observed 0750 UTC 22 January 2019
Temperature: 1.0°C (34°F)
Dewpoint: 0.0°C (32°F) [RH = 93%]
Pressure (altimeter): 29.65 inches Hg (1004.0 mb)
Winds: variable direction winds at 1 MPH (1 knots; 0.5 m/s)
Visibility: 6 or more miles (10+ km)
Ceiling: ceiling and visibility are OK
Clouds: unknown
Weather: no significant weather observed at this time

METAR text: EGKK 220720Z VRB02KT CAVOK 02/01 Q1004
Conditions at: EGKK (LONDON/GATWICK A, GB) observed 0720 UTC 22 January 2019
Temperature: 2.0°C (36°F)
Dewpoint: 1.0°C (34°F) [RH = 93%]
Pressure (altimeter): 29.65 inches Hg (1004.0 mb)
Winds: variable direction winds at 2 MPH (2 knots; 1.0 m/s)
Visibility: 6 or more miles (10+ km)
Ceiling: ceiling and visibility are OK
Clouds: unknown
Weather: no significant weather observed at this time

METAR text: EGKK 220650Z VRB03KT CAVOK 02/01 Q1004
Conditions at: EGKK (LONDON/GATWICK A, GB) observed 0650 UTC 22 January 2019
Temperature: 2.0°C (36°F)
Dewpoint: 1.0°C (34°F) [RH = 93%]
Pressure (altimeter): 29.65 inches Hg (1004.0 mb)
Winds: variable direction winds at 3 MPH (3 knots; 1.5 m/s)
Visibility: 6 or more miles (10+ km)
Ceiling: ceiling and visibility are OK
Clouds: unknown
Weather: no significant weather observed at this time

METAR text: EGKK 220620Z 24004KT CAVOK 02/02 Q1004
Conditions at: EGKK (LONDON/GATWICK A, GB) observed 0620 UTC 22 January 2019
Temperature: 2.0°C (36°F)
Dewpoint: 2.0°C (36°F) [RH = 100%]
Pressure (altimeter): 29.65 inches Hg (1004.0 mb)
Winds: from the WSW (240 degrees) at 5 MPH (4 knots; 2.1 m/s)
Visibility: 6 or more miles (10+ km)
Ceiling: ceiling and visibility are OK
Clouds: unknown
Weather: no significant weather observed at this time

METAR text: EGKK 220550Z 25003KT CAVOK 03/02 Q1004
Conditions at: EGKK (LONDON/GATWICK A, GB) observed 0550 UTC 22 January 2019
Temperature: 3.0°C (37°F)
Dewpoint: 2.0°C (36°F) [RH = 93%]
Pressure (altimeter): 29.65 inches Hg (1004.0 mb)
Winds: from the WSW (250 degrees) at 3 MPH (3 knots; 1.5 m/s)
Visibility: 6 or more miles (10+ km)
Ceiling: ceiling and visibility are OK
Clouds: unknown
Weather: no significant weather observed at this time

METAR text: EGKK 220520Z 26006KT 9999 FEW017 03/02 Q1004
Conditions at: EGKK (LONDON/GATWICK A, GB) observed 0520 UTC 22 January 2019
Temperature: 3.0°C (37°F)
Dewpoint: 2.0°C (36°F) [RH = 93%]
Pressure (altimeter): 29.65 inches Hg (1004.0 mb)
Winds: from the W (260 degrees) at 7 MPH (6 knots; 3.1 m/s)
Visibility: 6 or more miles (10+ km)
Ceiling: at least 12,000 feet AGL
Clouds: few clouds at 1700 feet AGL
Weather: no significant weather observed at this time

METAR text: EGKK 220450Z 26007KT 9999 FEW016 04/03 Q1004
Conditions at: EGKK (LONDON/GATWICK A, GB) observed 0450 UTC 22 January 2019
Temperature: 4.0°C (39°F)
Dewpoint: 3.0°C (37°F) [RH = 93%]
Pressure (altimeter): 29.65 inches Hg (1004.0 mb)
Winds: from the W (260 degrees) at 8 MPH (7 knots; 3.6 m/s)
Visibility: 6 or more miles (10+ km)
Ceiling: at least 12,000 feet AGL
Clouds: few clouds at 1600 feet AGL
Weather: no significant weather observed at this time

METAR text: EGKK 220420Z 26007KT 9999 FEW018 04/03 Q1004
Conditions at: EGKK (LONDON/GATWICK A, GB) observed 0420 UTC 22 January 2019
Temperature: 4.0°C (39°F)
Dewpoint: 3.0°C (37°F) [RH = 93%]
Pressure (altimeter): 29.65 inches Hg (1004.0 mb)
Winds: from the W (260 degrees) at 8 MPH (7 knots; 3.6 m/s)
Visibility: 6 or more miles (10+ km)
Ceiling: at least 12,000 feet AGL
Clouds: few clouds at 1800 feet AGL
Weather: no significant weather observed at this time

METAR text: EGKK 220350Z 26007KT 9999 -RA FEW006 SCT019 05/03 Q1004 RERA
Conditions at: EGKK (LONDON/GATWICK A, GB) observed 0350 UTC 22 January 2019
Temperature: 5.0°C (41°F)
Dewpoint: 3.0°C (37°F) [RH = 87%]
Pressure (altimeter): 29.65 inches Hg (1004.0 mb)
Winds: from the W (260 degrees) at 8 MPH (7 knots; 3.6 m/s)
Visibility: 6 or more miles (10+ km)
Ceiling: at least 12,000 feet AGL
Clouds: few clouds at 600 feet AGL
scattered clouds at 1900 feet AGL
Weather: -RA  (light rain)

METAR text: EGKK 220320Z 22007KT 9000 RA FEW011 BKN015 05/05 Q1004
Conditions at: EGKK (LONDON/GATWICK A, GB) observed 0320 UTC 22 January 2019
Temperature: 5.0°C (41°F)
Dewpoint: 5.0°C (41°F) [RH = 100%]
Pressure (altimeter): 29.65 inches Hg (1004.0 mb)
Winds: from the SW (220 degrees) at 8 MPH (7 knots; 3.6 m/s)
Visibility: 6 miles ( 9 km)
Ceiling: 1500 feet AGL
Clouds: few clouds at 1100 feet AGL
broken clouds at 1500 feet AGL
Weather: RA  (moderate rain)

METAR text: EGKK 220250Z 24012KT 7000 RA BKN009 BKN018 06/05 Q1005
Conditions at: EGKK (LONDON/GATWICK A, GB) observed 0250 UTC 22 January 2019
Temperature: 6.0°C (43°F)
Dewpoint: 5.0°C (41°F) [RH = 93%]
Pressure (altimeter): 29.68 inches Hg (1005.0 mb)
Winds: from the WSW (240 degrees) at 14 MPH (12 knots; 6.2 m/s)
Visibility: 4 miles ( 7 km)
Ceiling: 900 feet AGL
Clouds: broken clouds at 900 feet AGL
broken clouds at 1800 feet AGL
Weather: RA  (moderate rain)

METAR text: EGKK 220220Z 21010G21KT 5000 RA BKN008 BKN018 06/06 Q1005
Conditions at: EGKK (LONDON/GATWICK A, GB) observed 0220 UTC 22 January 2019
Temperature: 6.0°C (43°F)
Dewpoint: 6.0°C (43°F) [RH = 100%]
Pressure (altimeter): 29.68 inches Hg (1005.0 mb)
Winds: from the SSW (210 degrees) at 12 MPH (10 knots; 5.1 m/s)
gusting to 24 MPH (21 knots; 10.8 m/s)
Visibility: 3 miles ( 5 km)
Ceiling: 800 feet AGL
Clouds: broken clouds at 800 feet AGL
broken clouds at 1800 feet AGL
Weather: RA  (moderate rain)

METAR text: EGKK 220150Z 19011KT 6000 RA BKN007 BKN011 06/05 Q1006
Conditions at: EGKK (LONDON/GATWICK A, GB) observed 0150 UTC 22 January 2019
Temperature: 6.0°C (43°F)
Dewpoint: 5.0°C (41°F) [RH = 93%]
Pressure (altimeter): 29.70 inches Hg (1006.0 mb)
Winds: from the S (190 degrees) at 13 MPH (11 knots; 5.7 m/s)
Visibility: 4 miles ( 6 km)
Ceiling: 700 feet AGL
Clouds: broken clouds at 700 feet AGL
broken clouds at 1100 feet AGL
Weather: RA  (moderate rain)

Forecast for: EGKK (LONDON/GATWICK A, GB)
Text: TAF EGKK 231056Z 2312/2418 34008KT 9999 FEW020
Forecast period: 1200 to 2000 UTC 23 January 2019
Forecast type: FROM: standard forecast or significant change
Winds: from the NNW (340 degrees) at 9 MPH (8 knots; 4.1 m/s)
Visibility: 6 or more miles 10+ km)
Ceiling: at least 12,000 feet AGL
Clouds: few clouds at 2000 feet AGL
Weather: no significant weather forecast for this period
Text: BECMG 2320/2323 8000
Forecast period: 2000 UTC 23 January 2019 to 0900 UTC 24 January 2019
Forecast type: BECOMING: Conditions expected to become as follows by 2300 UTC 23 January 2019
Winds: from the NNW (340 degrees) at 9 MPH (8 knots; 4.1 m/s)
Visibility: 5 miles (8 km)
Ceiling: at least 12,000 feet AGL
Clouds: few clouds at 2000 feet AGL
Weather: no significant weather forecast for this period
Text: PROB40 2322/2409 2000 BR
Forecast period: 2200 UTC 23 January 2019 to 0900 UTC 24 January 2019
Forecast type: PROBABLE: 40 percent likelihood of the following during this time
Visibility: 1.24 miles (2.00 km)
Ceiling: unknown
Clouds: missing
Weather: BR  (mist)
Text: BECMG 2409/2412 9999
Forecast period: 0900 to 1800 UTC 24 January 2019
Forecast type: BECOMING: Conditions expected to become as follows by 1200 UTC 24 January 2019
Winds: from the NNW (340 degrees) at 9 MPH (8 knots; 4.1 m/s)
Visibility: 6 or more miles 10+ km)
Ceiling: at least 12,000 feet AGL
Clouds: few clouds at 2000 feet AGL
Weather: no significant weather forecast for this period
Text: TEMPO 2410/2418 BKN009
Forecast period: 1000 to 1800 UTC 24 January 2019
Forecast type: TEMPORARY: The following changes expected for less than half the time period
Visibility: missing
Ceiling: 900 feet AGL
Clouds: broken clouds at 900 feet AGL
Weather: no significant weather forecast for this period
Text: PROB30
Forecast period: 1100 to 1500 UTC 24 January 2019
Forecast type: TEMPORARY: The following changes expected for less than half the time period
Visibility: 5 miles (8 km)
Ceiling: unknown
Clouds: missing
Weather: -SHRA  (light rain showers)